CDT,Max TemperatureF,Mean TemperatureF,Min TemperatureF,Max Dew PointF,MeanDew PointF,Min DewpointF,Max Humidity, Mean Humidity, Min Humidity, Max Sea Level PressureIn, Mean Sea Level PressureIn, Min Sea Level PressureIn, Max VisibilityMiles, Mean VisibilityMiles, Min VisibilityMiles, Max Wind SpeedMPH, Mean Wind SpeedMPH, Max Gust SpeedMPH,PrecipitationIn, CloudCover, Events, WindDirDegrees
2013-3-1,58,46,34,25,18,6,55,35,13,30.35,30.26,30.21,10,10,10,23,6,32,0.00,0,,1
2013-3-2,67,49,31,27,24,19,75,43,19,30.44,30.32,30.20,10,10,10,12,5,18,0.00,0,,247
2013-3-3,80,58,37,24,14,-1,55,24,4,30.20,29.97,29.75,10,10,10,24,11,30,0.00,0,,181
2013-3-4,83,67,51,39,16,-2,58,17,4,30.01,29.76,29.67,10,10,7,30,13,47,0.00,0,,231
2013-3-5,54,45,36,37,17,7,64,37,15,30.44,30.33,30.04,10,10,10,31,18,43,0.03,0,,20
2013-3-6,59,46,33,14,8,4,37,22,12,30.38,30.26,30.09,10,10,10,17,8,25,0.00,0,,132
2013-3-7,74,57,40,42,23,12,62,29,19,30.11,30.05,29.98,10,10,10,20,13,25,0.00,0,,171
2013-3-8,74,63,52,58,53,43,87,71,50,30.02,29.95,29.81,10,10,10,24,13,32,0.00,3,,154
2013-3-9,70,64,56,58,37,4,83,46,10,29.84,29.78,29.73,10,10,7,29,19,46,0.00,6,Rain-Thunderstorm,229
2013-3-10,56,46,36,30,16,5,60,32,16,30.16,30.04,29.85,10,10,10,32,20,43,0.00,1,,318
2013-3-11,69,49,29,14,10,4,40,23,10,30.16,30.07,29.95,10,10,10,18,8,25,0.00,0,,228
2013-3-12,61,50,39,28,20,14,44,31,22,30.35,30.14,29.95,10,10,10,26,11,33,0.00,0,,18
2013-3-13,69,53,37,34,28,24,77,43,18,30.42,30.34,30.24,10,10,10,14,7,16,0.00,0,,110
2013-3-14,80,64,48,42,31,21,61,34,11,30.29,30.21,30.12,10,10,10,17,10,24,0.00,0,,168
2013-3-15,88,68,49,41,29,9,58,30,6,30.17,30.02,29.87,10,10,10,20,10,29,0.00,0,,184
2013-3-16,89,70,51,43,32,7,58,32,5,29.88,29.78,29.65,10,10,10,21,13,28,0.00,0,,208
2013-3-17,74,58,41,44,37,29,76,50,21,29.90,29.79,29.67,10,10,4,18,11,40,0.00,0,,7
2013-3-18,69,60,51,39,34,21,57,41,26,30.01,29.90,29.72,10,10,7,23,9,31,0.00,0,,20
2013-3-19,69,56,42,43,37,33,69,51,29,30.16,29.99,29.93,10,10,10,18,8,29,0.00,0,,40
2013-3-20,67,53,39,35,26,16,66,37,16,30.34,30.18,29.97,10,10,10,17,10,23,0.00,0,,72
2013-3-21,83,67,51,51,30,8,69,33,6,29.94,29.68,29.51,10,10,10,23,14,32,0.00,0,,201
2013-3-22,62,51,40,44,35,15,90,61,16,29.86,29.77,29.59,10,10,4,20,11,31,0.00,3,,12
2013-3-23,79,60,41,44,29,-41,86,52,4,30.00,29.75,29.58,10,10,2,46,11,60,0.00,3,Rain,279
2013-3-24,49,39,29,27,12,-1,64,38,13,30.24,30.14,30.02,10,10,10,31,16,38,0.00,0,,345
2013-3-25,49,38,26,15,12,5,53,34,22,30.38,30.30,30.18,10,10,10,15,9,21,0.00,0,,41
2013-3-26,62,46,31,13,9,3,44,25,10,30.41,30.30,30.16,10,10,10,22,9,29,0.00,0,,149
2013-3-27,77,58,40,42,28,10,52,32,19,30.17,30.08,30.00,10,10,10,23,12,29,0.00,0,,169
2013-3-28,80,64,47,52,46,40,89,57,24,30.13,30.06,29.99,10,10,10,18,11,25,0.00,0,,178
2013-3-29,76,65,54,57,54,51,93,68,43,30.11,30.06,29.96,10,10,10,21,12,26,0.00,2,Rain,171
2013-3-30,85,68,51,57,44,22,95,54,10,30.06,29.97,29.87,10,10,4,17,8,22,0.00,0,,153
2013-3-31,73,64,56,48,43,32,71,45,27,30.08,29.99,29.88,10,10,7,29,9,37,0.00,0,,21